createdAt,value
2019-01-30T00:03:37.367Z,11.73
2019-01-30T00:09:39.705Z,11.57
2019-01-30T00:15:41.826Z,11.48
2019-01-30T00:21:44.141Z,9.88
2019-01-30T00:27:46.456Z,10.90
2019-01-30T00:33:48.771Z,9.95
2019-01-30T00:39:51.240Z,9.55
2019-01-30T00:45:53.411Z,9.40
2019-01-30T00:51:55.797Z,8.58
2019-01-30T00:57:59.229Z,8.20
2019-01-30T01:04:02.999Z,8.83
2019-01-30T01:10:07.307Z,8.03
2019-01-30T01:16:09.563Z,8.48
2019-01-30T01:22:11.960Z,7.95
2019-01-30T01:28:15.310Z,7.60
2019-01-30T01:34:17.687Z,7.60
2019-01-30T01:40:19.891Z,7.42
2019-01-30T01:46:22.306Z,8.05
2019-01-30T01:52:24.845Z,7.40
2019-01-30T01:58:27.128Z,7.58
2019-01-30T02:04:29.831Z,8.68
2019-01-30T02:10:32.232Z,7.70
2019-01-30T02:16:35.748Z,7.50
2019-01-30T02:22:38.228Z,7.10
2019-01-30T02:28:40.666Z,7.42
2019-01-30T02:34:43.152Z,6.90
2019-01-30T02:40:46.511Z,6.58
2019-01-30T02:46:49.570Z,6.53
2019-01-30T02:52:52.826Z,6.42
2019-01-30T02:58:56.332Z,6.03
2019-01-30T03:04:58.811Z,6.33
2019-01-30T03:11:01.231Z,6.08
2019-01-30T03:17:03.589Z,5.45
2019-01-30T03:23:05.907Z,5.10
2019-01-30T03:29:09.252Z,6.15
2019-01-30T03:35:11.527Z,6.70
2019-01-30T03:41:13.699Z,6.12
2019-01-30T03:47:15.979Z,6.47
2019-01-30T03:53:18.294Z,5.95
2019-01-30T03:59:20.551Z,6.70
2019-01-30T04:05:23.767Z,6.85
2019-01-30T04:11:26.368Z,6.22
2019-01-30T04:17:28.579Z,6.95
2019-01-30T04:23:30.956Z,7.50
2019-01-30T04:29:33.321Z,6.53
2019-01-30T04:35:35.435Z,6.70
2019-01-30T04:41:37.903Z,6.35
2019-01-30T04:47:40.892Z,6.60
2019-01-30T04:53:43.243Z,6.53
2019-01-30T04:59:45.414Z,6.35
2019-01-30T05:05:47.690Z,6.87
2019-01-30T05:11:50.923Z,6.92
2019-01-30T05:17:54.179Z,6.55
2019-01-30T05:23:57.706Z,6.28
2019-01-30T05:29:59.849Z,6.90
2019-01-30T05:36:01.995Z,7.00
2019-01-30T05:42:04.373Z,6.47
2019-01-30T05:48:13.690Z,6.30
2019-01-30T05:54:16.119Z,5.80
2019-01-30T06:00:31.677Z,5.67
2019-01-30T06:06:33.912Z,4.83
2019-01-30T06:12:36.279Z,6.03
2019-01-30T06:18:41.957Z,6.12
2019-01-30T06:24:45.031Z,6.15
2019-01-30T06:30:47.276Z,6.40
2019-01-30T06:36:49.549Z,6.67
2019-01-30T06:42:52.850Z,7.30
2019-01-30T06:48:56.336Z,6.67
2019-01-30T06:54:58.795Z,6.65
2019-01-30T07:01:01.099Z,6.72
2019-01-30T07:07:04.390Z,6.03
2019-01-30T07:13:06.704Z,7.20
2019-01-30T07:19:08.935Z,7.10
2019-01-30T07:25:12.385Z,7.33
2019-01-30T07:31:14.932Z,7.28
2019-01-30T07:37:17.097Z,7.25
2019-01-30T07:43:19.567Z,7.10
2019-01-30T07:49:22.063Z,7.10
2019-01-30T07:55:24.489Z,7.05
2019-01-30T08:01:28.096Z,6.72
2019-01-30T08:07:30.628Z,7.12
2019-01-30T08:13:33.189Z,7.67
2019-01-30T08:19:35.344Z,7.42
2019-01-30T08:25:38.523Z,8.43
2019-01-30T08:31:43.023Z,7.92
2019-01-30T08:37:45.981Z,6.65
2019-01-30T08:43:48.393Z,7.10
2019-01-30T08:49:51.535Z,6.87
2019-01-30T08:55:54.143Z,8.08
2019-01-30T09:01:56.588Z,6.95
2019-01-30T09:07:58.795Z,6.87
2019-01-30T09:14:01.145Z,8.30
2019-01-30T09:20:06.015Z,11.57
2019-01-30T09:26:08.547Z,9.88
2019-01-30T09:32:11.005Z,9.73
2019-01-30T09:38:14.358Z,9.43
2019-01-30T09:44:16.657Z,9.60
2019-01-30T09:50:19.105Z,9.55
2019-01-30T09:56:21.738Z,9.78
2019-01-30T10:02:25.779Z,8.53
2019-01-30T10:08:28.047Z,10.45
2019-01-30T10:14:30.695Z,11.08
2019-01-30T10:20:33.238Z,10.58
2019-01-30T10:26:35.703Z,11.53
2019-01-30T10:32:38.541Z,11.70
2019-01-30T10:38:40.831Z,10.80
2019-01-30T10:44:43.340Z,10.98
2019-01-30T10:50:45.740Z,12.37
2019-01-30T10:56:49.979Z,12.58
2019-01-30T11:02:52.171Z,12.28
2019-01-30T11:08:54.503Z,12.33
2019-01-30T11:14:58.044Z,10.20
2019-01-30T11:21:00.506Z,12.00
2019-01-30T11:27:02.777Z,11.55
2019-01-30T11:33:04.959Z,10.50
2019-01-30T11:39:07.230Z,10.70
2019-01-30T11:45:16.018Z,11.00
2019-01-30T11:51:18.444Z,10.72
2019-01-30T11:57:20.963Z,9.98
2019-01-30T12:03:23.340Z,10.48
2019-01-30T12:09:26.057Z,9.45
2019-01-30T12:15:28.500Z,9.45
2019-01-30T12:21:30.879Z,9.40
2019-01-30T12:27:33.699Z,8.80
2019-01-30T12:33:37.546Z,8.73
2019-01-30T12:39:39.739Z,9.03
2019-01-30T12:45:44.619Z,7.72
2019-01-30T12:51:48.710Z,8.08
2019-01-30T12:57:51.312Z,8.00
2019-01-30T13:03:53.642Z,7.53
2019-01-30T13:09:56.208Z,7.70
2019-01-30T13:15:58.702Z,6.95
2019-01-30T13:22:02.651Z,7.08
2019-01-30T13:28:05.463Z,7.03
2019-01-30T13:34:07.705Z,6.83
2019-01-30T13:40:13.565Z,7.40
2019-01-30T13:46:18.008Z,8.08
2019-01-30T13:52:20.573Z,7.70
2019-01-30T13:58:23.089Z,7.58
2019-01-30T14:04:25.916Z,8.55
2019-01-30T14:10:28.468Z,8.38
2019-01-30T14:16:30.944Z,7.78
2019-01-30T14:22:33.230Z,7.78
2019-01-30T14:28:35.600Z,7.45
2019-01-30T14:34:38.241Z,8.40
2019-01-30T14:40:40.678Z,7.97
2019-01-30T14:46:43.206Z,8.43
2019-01-30T14:52:46.903Z,8.05
2019-01-30T14:58:49.743Z,8.98
2019-01-30T15:04:52.243Z,9.18
2019-01-30T15:10:54.669Z,8.73
2019-01-30T15:16:56.958Z,10.45
2019-01-30T15:22:59.948Z,9.63
2019-01-30T15:29:02.203Z,9.90
2019-01-30T15:35:05.703Z,10.60
2019-01-30T15:41:08.109Z,10.05
2019-01-30T15:47:12.407Z,10.78
2019-01-30T15:53:18.284Z,10.63
2019-01-30T15:59:20.876Z,11.30
2019-01-30T16:05:23.474Z,13.45
2019-01-30T16:11:25.854Z,13.78
2019-01-30T16:17:28.216Z,13.08
2019-01-30T16:23:31.580Z,14.03
2019-01-30T16:29:34.964Z,12.82
2019-01-30T16:35:37.187Z,13.40
2019-01-30T16:41:39.544Z,13.70
2019-01-30T16:47:43.977Z,14.30
2019-01-30T16:53:46.225Z,12.58
2019-01-30T16:59:48.457Z,19.62
2019-01-30T17:05:51.888Z,25.97
2019-01-30T17:11:55.188Z,19.00
2019-01-30T17:17:57.469Z,17.80
2019-01-30T17:24:00.967Z,16.70
2019-01-30T17:30:08.152Z,15.95
2019-01-30T17:36:18.118Z,22.05
2019-01-30T17:42:15.000Z,24.32
2019-01-30T17:48:20.094Z,36.17
2019-01-30T17:54:22.205Z,32.83
2019-01-30T18:00:31.611Z,29.52
2019-01-30T18:06:44.810Z,29.18
2019-01-30T18:12:47.028Z,32.53
2019-01-30T18:18:49.228Z,28.92
2019-01-30T18:24:51.370Z,24.23
2019-01-30T18:30:53.472Z,26.07
2019-01-30T18:36:55.663Z,24.18
2019-01-30T18:42:57.817Z,21.85
2019-01-30T18:49:01.715Z,18.35
2019-01-30T18:55:04.485Z,21.20
2019-01-30T19:01:06.868Z,20.62
2019-01-30T19:07:09.156Z,20.00
2019-01-30T19:13:11.391Z,19.00
2019-01-30T19:19:13.590Z,21.20
2019-01-30T19:25:17.556Z,18.32
2019-01-30T19:31:21.848Z,19.17
2019-01-30T19:37:25.207Z,17.35
2019-01-30T19:43:27.327Z,16.05
2019-01-30T19:49:30.676Z,15.53
2019-01-30T19:55:32.830Z,17.35
2019-01-30T20:01:36.168Z,17.62
2019-01-30T20:07:38.935Z,16.48
2019-01-30T20:13:41.548Z,16.48
2019-01-30T20:19:45.339Z,16.70
2019-01-30T20:25:47.807Z,17.37
2019-01-30T20:31:50.091Z,15.60
2019-01-30T20:37:52.384Z,16.05
2019-01-30T20:43:54.752Z,17.12
2019-01-30T20:49:58.080Z,17.27
2019-01-30T20:56:00.715Z,16.70
2019-01-30T21:02:02.915Z,16.65
2019-01-30T21:08:05.949Z,17.27
2019-01-30T21:14:08.225Z,15.63
2019-01-30T21:20:11.313Z,15.03
2019-01-30T21:26:13.472Z,15.80
2019-01-30T21:32:15.655Z,16.48
2019-01-30T21:38:20.169Z,14.30
2019-01-30T21:44:22.383Z,16.12
2019-01-30T21:50:24.761Z,15.08
2019-01-30T21:56:27.903Z,16.73
2019-01-30T22:02:30.399Z,16.75
2019-01-30T22:08:35.770Z,16.55
2019-01-30T22:14:38.162Z,16.02
2019-01-30T22:20:40.438Z,18.52
2019-01-30T22:26:43.424Z,17.87
2019-01-30T22:32:46.905Z,19.12
2019-01-30T22:38:50.231Z,19.20
2019-01-30T22:44:52.523Z,18.77
2019-01-30T22:50:54.970Z,19.30
2019-01-30T22:56:57.083Z,19.85
2019-01-30T23:03:03.331Z,21.50
2019-01-30T23:09:56.366Z,21.05
2019-01-30T23:16:32.011Z,21.00
2019-01-30T23:23:31.738Z,21.87
2019-01-30T23:30:33.817Z,22.58
2019-01-30T23:37:33.026Z,22.00
2019-01-30T23:44:16.842Z,20.70
2019-01-30T23:50:37.835Z,22.13
2019-01-30T23:57:12.647Z,17.85
